createdAt,value
2024-02-17T00:01:50.664Z,9.88
2024-02-17T00:04:18.089Z,11.50
2024-02-17T00:06:45.518Z,7.28
2024-02-17T00:09:12.980Z,8.10
2024-02-17T00:11:41.497Z,12.43
2024-02-17T00:14:09.365Z,10.65
2024-02-17T00:16:36.581Z,8.80
2024-02-17T00:19:03.896Z,7.72
2024-02-17T00:21:31.370Z,12.38
2024-02-17T00:23:58.580Z,9.93
2024-02-17T00:26:25.935Z,10.82
2024-02-17T00:28:53.155Z,10.18
2024-02-17T00:31:20.480Z,9.05
2024-02-17T00:33:48.083Z,9.38
2024-02-17T00:36:15.414Z,8.88
2024-02-17T00:38:43.922Z,13.48
2024-02-17T00:41:11.099Z,10.63
2024-02-17T00:43:38.449Z,10.07
2024-02-17T00:46:05.812Z,12.00
2024-02-17T00:48:33.593Z,10.35
2024-02-17T00:51:05.325Z,9.63
2024-02-17T00:53:43.332Z,8.27
2024-02-17T00:56:10.799Z,11.30
2024-02-17T00:58:37.963Z,6.57
2024-02-17T01:01:05.285Z,10.05
2024-02-17T01:03:32.719Z,7.70
2024-02-17T01:05:59.949Z,10.88
2024-02-17T01:08:27.236Z,9.15
2024-02-17T01:10:55.331Z,8.32
2024-02-17T01:13:22.573Z,10.27
2024-02-17T01:15:49.864Z,11.05
2024-02-17T01:18:17.335Z,12.20
2024-02-17T01:20:44.755Z,12.05
2024-02-17T01:23:12.135Z,14.55
2024-02-17T01:25:39.341Z,11.63
2024-02-17T01:28:06.936Z,11.95
2024-02-17T01:30:34.176Z,8.40
2024-02-17T01:33:01.492Z,8.68
2024-02-17T01:35:28.725Z,7.30
2024-02-17T01:37:55.920Z,9.93
2024-02-17T01:40:23.844Z,11.35
2024-02-17T01:42:51.104Z,10.70
2024-02-17T01:45:18.425Z,9.25
2024-02-17T01:47:46.071Z,9.05
2024-02-17T01:50:13.425Z,7.10
2024-02-17T01:52:42.224Z,10.38
2024-02-17T01:55:10.013Z,9.65
2024-02-17T01:57:37.419Z,8.23
2024-02-17T02:00:07.853Z,9.02
2024-02-17T02:02:35.575Z,8.80
2024-02-17T02:05:04.036Z,10.07
2024-02-17T02:07:31.333Z,8.63
2024-02-17T02:09:58.572Z,8.82
2024-02-17T02:12:25.919Z,9.43
2024-02-17T02:15:12.756Z,8.07
2024-02-17T02:17:41.089Z,11.60
2024-02-17T02:20:08.783Z,9.05
2024-02-17T02:22:36.799Z,8.07
2024-02-17T02:25:06.890Z,12.35
2024-02-17T02:27:39.783Z,12.25
2024-02-17T02:30:07.308Z,10.75
2024-02-17T02:32:34.557Z,11.02
2024-02-17T02:35:02.027Z,9.50
2024-02-17T02:37:29.652Z,9.27
2024-02-17T02:39:56.946Z,9.23
2024-02-17T02:42:24.221Z,11.05
2024-02-17T02:44:51.471Z,7.63
2024-02-17T02:47:19.521Z,9.00
2024-02-17T02:49:47.285Z,9.25
2024-02-17T02:52:15.427Z,8.63
2024-02-17T02:54:42.845Z,8.32
2024-02-17T02:57:10.529Z,10.43
2024-02-17T02:59:37.841Z,7.80
2024-02-17T03:02:05.855Z,9.93
2024-02-17T03:04:33.335Z,7.47
2024-02-17T03:07:00.828Z,11.40
2024-02-17T03:09:28.116Z,9.55
2024-02-17T03:11:55.315Z,9.52
2024-02-17T03:14:22.664Z,9.48
2024-02-17T03:16:49.918Z,10.65
2024-02-17T03:19:17.816Z,10.70
2024-02-17T03:21:45.168Z,10.30
2024-02-17T03:24:12.554Z,8.23
2024-02-17T03:26:39.784Z,8.85
2024-02-17T03:29:07.004Z,10.27
2024-02-17T03:31:34.312Z,9.18
2024-02-17T03:34:02.074Z,8.55
2024-02-17T03:36:29.536Z,8.70
2024-02-17T03:38:56.789Z,7.45
2024-02-17T03:41:24.817Z,7.15
2024-02-17T03:43:52.069Z,9.25
2024-02-17T03:46:19.240Z,9.30
2024-02-17T03:48:46.669Z,8.10
2024-02-17T03:51:14.407Z,6.75
2024-02-17T03:53:42.526Z,8.85
2024-02-17T03:56:09.728Z,8.00
2024-02-17T03:58:37.011Z,8.10
2024-02-17T04:01:04.708Z,7.97
2024-02-17T04:03:32.661Z,8.63
2024-02-17T04:06:00.089Z,9.02
2024-02-17T04:08:27.373Z,10.60
2024-02-17T04:10:55.520Z,9.00
2024-02-17T04:13:22.782Z,8.90
2024-02-17T04:15:50.078Z,7.70
2024-02-17T04:18:17.497Z,8.77
2024-02-17T04:20:44.892Z,9.80
2024-02-17T04:23:12.843Z,9.82
2024-02-17T04:25:41.420Z,9.55
2024-02-17T04:28:08.642Z,9.50
2024-02-17T04:30:36.045Z,8.07
2024-02-17T04:33:03.504Z,10.77
2024-02-17T04:35:30.829Z,9.93
2024-02-17T04:37:58.080Z,8.57
2024-02-17T04:40:25.281Z,9.52
2024-02-17T04:42:54.697Z,9.43
2024-02-17T04:45:22.035Z,9.50
2024-02-17T04:47:49.985Z,10.80
2024-02-17T04:50:18.451Z,9.55
2024-02-17T04:52:45.640Z,9.32
2024-02-17T04:55:13.020Z,10.63
2024-02-17T04:57:40.365Z,8.45
2024-02-17T05:00:08.092Z,8.65
2024-02-17T05:02:38.770Z,8.25
2024-02-17T05:05:06.384Z,8.90
2024-02-17T05:07:33.876Z,9.27
2024-02-17T05:10:01.425Z,10.35
2024-02-17T05:12:28.922Z,9.57
2024-02-17T05:14:57.212Z,8.55
2024-02-17T05:17:25.208Z,10.10
2024-02-17T05:19:53.193Z,9.10
2024-02-17T05:22:20.524Z,8.75
2024-02-17T05:24:47.881Z,8.57
2024-02-17T05:27:15.513Z,8.10
2024-02-17T05:29:43.133Z,8.10
2024-02-17T05:32:10.442Z,9.77
2024-02-17T05:34:41.047Z,8.18
2024-02-17T05:37:08.404Z,7.68
2024-02-17T05:39:35.729Z,8.75
2024-02-17T05:42:03.015Z,9.05
2024-02-17T05:44:30.230Z,6.88
2024-02-17T05:46:58.261Z,9.20
2024-02-17T05:49:25.616Z,10.27
2024-02-17T05:51:53.307Z,7.03
2024-02-17T05:54:21.404Z,6.97
2024-02-17T05:56:50.448Z,7.00
2024-02-17T05:59:17.884Z,7.53
2024-02-17T06:01:46.903Z,8.30
2024-02-17T06:04:15.452Z,5.70
2024-02-17T06:06:43.894Z,7.43
2024-02-17T06:09:11.213Z,6.32
2024-02-17T06:11:39.066Z,6.10
2024-02-17T06:14:06.302Z,9.00
2024-02-17T06:16:33.814Z,6.75
2024-02-17T06:19:21.542Z,6.70
2024-02-17T06:21:48.842Z,7.10
2024-02-17T06:24:16.736Z,7.15
2024-02-17T06:26:44.390Z,6.65
2024-02-17T06:29:11.592Z,6.85
2024-02-17T06:31:40.056Z,7.50
2024-02-17T06:34:08.146Z,7.18
2024-02-17T06:36:38.009Z,6.10
2024-02-17T06:39:05.508Z,6.18
2024-02-17T06:41:33.887Z,6.50
2024-02-17T06:44:01.078Z,7.65
2024-02-17T06:46:28.893Z,8.85
2024-02-17T06:48:56.243Z,6.80
2024-02-17T06:51:24.029Z,6.55
2024-02-17T06:53:51.283Z,6.45
2024-02-17T06:56:20.069Z,7.47
2024-02-17T06:58:47.439Z,8.32
2024-02-17T07:01:14.840Z,8.93
2024-02-17T07:03:42.138Z,7.47
2024-02-17T07:06:09.656Z,7.07
2024-02-17T07:08:37.014Z,7.65
2024-02-17T07:11:04.637Z,5.82
2024-02-17T07:13:33.556Z,7.25
2024-02-17T07:16:00.985Z,8.07
2024-02-17T07:18:28.508Z,7.10
2024-02-17T07:20:55.822Z,7.65
2024-02-17T07:23:25.192Z,7.75
2024-02-17T07:25:53.158Z,6.88
2024-02-17T07:28:20.382Z,7.50
2024-02-17T07:30:47.619Z,5.57
2024-02-17T07:33:17.470Z,5.97
2024-02-17T07:35:46.415Z,6.68
2024-02-17T07:38:14.917Z,6.65
2024-02-17T07:40:42.154Z,6.80
2024-02-17T07:43:09.348Z,6.32
2024-02-17T07:45:38.160Z,5.15
2024-02-17T07:48:05.833Z,5.68
2024-02-17T07:50:33.188Z,6.28
2024-02-17T07:53:00.749Z,6.03
2024-02-17T07:55:28.029Z,5.18
2024-02-17T07:57:55.420Z,6.97
2024-02-17T08:00:22.766Z,6.35
2024-02-17T08:02:52.207Z,7.45
2024-02-17T08:05:21.160Z,9.82
2024-02-17T08:07:48.483Z,8.93
2024-02-17T08:10:15.856Z,7.35
2024-02-17T08:12:44.169Z,8.35
2024-02-17T08:15:11.818Z,7.85
2024-02-17T08:17:40.591Z,9.60
2024-02-17T08:20:08.260Z,7.93
2024-02-17T08:22:35.584Z,8.00
2024-02-17T08:25:06.668Z,10.02
2024-02-17T08:27:37.449Z,9.57
2024-02-17T08:30:05.049Z,10.77
2024-02-17T08:32:33.928Z,11.82
2024-02-17T08:35:02.185Z,10.55
2024-02-17T08:37:29.814Z,10.98
2024-02-17T08:39:57.077Z,8.80
2024-02-17T08:42:24.365Z,8.40
2024-02-17T08:44:54.804Z,9.13
2024-02-17T08:47:22.599Z,9.18
2024-02-17T08:49:52.142Z,8.40
2024-02-17T08:52:19.850Z,7.13
2024-02-17T08:54:47.577Z,6.80
2024-02-17T08:57:14.978Z,7.57
2024-02-17T08:59:44.043Z,7.15
2024-02-17T09:02:18.094Z,7.05
2024-02-17T09:04:46.206Z,7.60
2024-02-17T09:07:13.688Z,7.40
2024-02-17T09:09:40.982Z,7.43
2024-02-17T09:12:08.456Z,7.32
2024-02-17T09:14:35.798Z,8.60
2024-02-17T09:17:03.062Z,8.20
2024-02-17T09:19:33.259Z,9.63
2024-02-17T09:22:00.692Z,12.48
2024-02-17T09:24:28.901Z,9.52
2024-02-17T09:26:58.628Z,9.57
2024-02-17T09:29:25.865Z,10.60
2024-02-17T09:31:53.100Z,11.35
2024-02-17T09:34:22.320Z,10.98
2024-02-17T09:36:49.885Z,12.50
2024-02-17T09:39:17.259Z,11.48
2024-02-17T09:41:44.521Z,10.68
2024-02-17T09:44:12.036Z,9.75
2024-02-17T09:46:39.368Z,11.75
2024-02-17T09:49:08.712Z,12.00
2024-02-17T09:51:37.732Z,17.52
2024-02-17T09:54:05.707Z,11.73
2024-02-17T09:56:33.044Z,12.13
2024-02-17T09:59:00.260Z,12.05
2024-02-17T10:01:28.513Z,13.38
2024-02-17T10:03:56.208Z,12.50
2024-02-17T10:06:23.940Z,11.80
2024-02-17T10:08:51.347Z,13.15
2024-02-17T10:11:18.782Z,14.23
2024-02-17T10:13:58.747Z,12.07
2024-02-17T10:16:26.103Z,13.25
2024-02-17T10:18:53.570Z,15.80
2024-02-17T10:21:24.779Z,14.63
2024-02-17T10:23:52.506Z,13.93
2024-02-17T10:26:19.974Z,13.15
2024-02-17T10:29:00.666Z,13.82
2024-02-17T10:31:28.727Z,15.18
2024-02-17T10:33:56.275Z,14.95
2024-02-17T10:36:24.668Z,13.70
2024-02-17T10:38:53.467Z,15.23
2024-02-17T10:41:21.186Z,13.88
2024-02-17T10:43:49.304Z,11.82
2024-02-17T10:46:20.406Z,14.65
2024-02-17T10:49:08.039Z,12.85
2024-02-17T10:51:37.802Z,12.02
2024-02-17T10:54:06.538Z,14.02
2024-02-17T10:56:34.097Z,12.40
2024-02-17T10:59:03.315Z,12.80
2024-02-17T11:01:31.152Z,13.18
2024-02-17T11:03:59.592Z,13.23
2024-02-17T11:06:27.501Z,13.02
2024-02-17T11:08:56.197Z,13.57
2024-02-17T11:11:31.798Z,15.15
2024-02-17T11:14:02.417Z,13.85
2024-02-17T11:16:38.819Z,12.18
2024-02-17T11:19:11.903Z,11.30
2024-02-17T11:21:41.431Z,11.35
2024-02-17T11:24:10.111Z,10.73
2024-02-17T11:26:44.235Z,11.43
2024-02-17T11:31:39.708Z,11.85
2024-02-17T11:34:07.126Z,9.23
2024-02-17T11:36:36.426Z,10.63
2024-02-17T11:39:04.449Z,8.93
2024-02-17T11:41:31.960Z,8.20
2024-02-17T11:43:59.694Z,7.70
2024-02-17T11:46:26.963Z,9.15
2024-02-17T11:48:54.325Z,9.32
2024-02-17T11:51:26.636Z,11.20
2024-02-17T11:53:56.094Z,10.05
2024-02-17T11:56:25.238Z,8.55
2024-02-17T11:58:55.487Z,8.57
2024-02-17T12:01:22.933Z,7.97
2024-02-17T12:03:50.387Z,8.32
2024-02-17T12:06:18.239Z,9.27
2024-02-17T12:08:45.568Z,9.48
2024-02-17T12:11:12.861Z,11.25
2024-02-17T12:13:40.206Z,8.77
2024-02-17T12:16:08.640Z,10.02
2024-02-17T12:18:39.848Z,9.98
2024-02-17T12:21:08.197Z,10.27
2024-02-17T12:23:40.386Z,12.27
2024-02-17T12:26:16.453Z,9.82
2024-02-17T12:28:51.983Z,9.98
2024-02-17T12:31:20.597Z,8.57
2024-02-17T12:33:52.012Z,12.30
2024-02-17T12:36:23.536Z,9.00
2024-02-17T12:38:58.906Z,9.32
2024-02-17T12:41:29.500Z,8.93
2024-02-17T12:43:57.110Z,11.23
2024-02-17T12:46:29.881Z,9.52
2024-02-17T12:48:58.970Z,8.00
2024-02-17T12:51:29.681Z,9.93
2024-02-17T12:53:57.373Z,9.45
2024-02-17T12:56:25.878Z,8.77
2024-02-17T12:58:53.515Z,8.95
2024-02-17T13:01:21.112Z,9.80
2024-02-17T13:03:49.281Z,7.88
2024-02-17T13:06:17.036Z,8.23
2024-02-17T13:08:44.533Z,9.15
2024-02-17T13:11:12.013Z,9.38
2024-02-17T13:13:40.894Z,9.73
2024-02-17T13:16:08.547Z,7.63
2024-02-17T13:18:36.309Z,8.13
2024-02-17T13:21:04.286Z,8.18
2024-02-17T13:23:31.649Z,8.68
2024-02-17T13:25:59.093Z,9.45
2024-02-17T13:28:26.348Z,8.55
2024-02-17T13:30:53.902Z,8.85
2024-02-17T13:33:21.608Z,9.55
2024-02-17T13:35:49.244Z,8.05
2024-02-17T13:38:25.030Z,8.02
2024-02-17T13:40:57.130Z,8.45
2024-02-17T13:43:24.494Z,7.55
2024-02-17T13:45:52.402Z,10.70
2024-02-17T13:48:20.233Z,9.75
2024-02-17T13:50:53.620Z,7.90
2024-02-17T13:53:20.859Z,7.75
2024-02-17T13:55:48.043Z,8.38
2024-02-17T13:58:15.367Z,7.63
2024-02-17T14:00:43.755Z,7.97
2024-02-17T14:03:12.838Z,6.75
2024-02-17T14:05:40.492Z,9.30
2024-02-17T14:08:10.511Z,9.20
2024-02-17T14:10:37.686Z,8.98
2024-02-17T14:13:05.293Z,7.78
2024-02-17T14:15:32.681Z,8.48
2024-02-17T14:18:00.270Z,9.80
2024-02-17T14:20:27.675Z,7.57
2024-02-17T14:22:54.966Z,8.90
2024-02-17T14:25:22.221Z,9.43
2024-02-17T14:27:49.856Z,8.48
2024-02-17T14:30:22.478Z,7.47
2024-02-17T14:32:53.134Z,10.00
2024-02-17T14:35:20.483Z,8.40
2024-02-17T14:37:49.477Z,9.93
2024-02-17T14:40:17.879Z,8.25
2024-02-17T14:42:46.958Z,8.68
2024-02-17T14:45:14.594Z,8.75
2024-02-17T14:47:42.086Z,8.18
2024-02-17T14:50:09.731Z,10.45
2024-02-17T14:52:37.485Z,7.82
2024-02-17T14:55:05.001Z,9.48
2024-02-17T14:57:32.312Z,10.45
2024-02-17T14:59:59.666Z,8.93
2024-02-17T15:02:26.885Z,9.38
2024-02-17T15:04:54.148Z,7.70
2024-02-17T15:07:21.544Z,6.97
2024-02-17T15:09:50.145Z,7.00
2024-02-17T15:12:17.557Z,5.32
2024-02-17T15:14:45.014Z,7.95
2024-02-17T15:17:12.256Z,6.30
2024-02-17T15:19:40.441Z,7.53
2024-02-17T15:22:07.884Z,7.00
2024-02-17T15:24:35.226Z,6.97
2024-02-17T15:27:02.579Z,6.65
2024-02-17T15:29:29.856Z,7.80
2024-02-17T15:31:57.402Z,7.00
2024-02-17T15:34:24.731Z,6.47
2024-02-17T15:36:52.088Z,7.05
2024-02-17T15:39:19.388Z,7.90
2024-02-17T15:41:46.687Z,7.72
2024-02-17T15:44:13.989Z,7.80
2024-02-17T15:46:41.192Z,7.53
2024-02-17T15:49:08.998Z,7.85
2024-02-17T15:51:36.445Z,6.55
2024-02-17T15:54:03.729Z,7.70
2024-02-17T15:56:31.026Z,11.07
2024-02-17T15:58:59.675Z,8.65
2024-02-17T16:01:27.063Z,9.43
2024-02-17T16:03:54.427Z,9.75
2024-02-17T16:06:21.986Z,8.32
2024-02-17T16:08:49.300Z,9.27
2024-02-17T16:11:16.777Z,8.30
2024-02-17T16:13:49.534Z,7.95
2024-02-17T16:16:17.728Z,9.90
2024-02-17T16:18:48.498Z,8.25
2024-02-17T16:21:16.339Z,8.32
2024-02-17T16:23:43.693Z,9.90
2024-02-17T16:26:11.598Z,9.50
2024-02-17T16:28:39.041Z,11.55
2024-02-17T16:31:07.583Z,9.57
2024-02-17T16:33:36.800Z,9.68
2024-02-17T16:36:06.173Z,8.85
2024-02-17T16:38:33.793Z,8.38
2024-02-17T16:41:03.604Z,9.32
2024-02-17T16:43:30.977Z,10.77
2024-02-17T16:45:58.281Z,9.38
2024-02-17T16:48:25.801Z,13.93
2024-02-17T16:50:53.084Z,14.25
2024-02-17T16:53:20.342Z,12.68
2024-02-17T16:55:47.792Z,12.38
2024-02-17T16:58:15.124Z,10.18
2024-02-17T17:00:42.441Z,11.50
2024-02-17T17:03:10.150Z,10.70
2024-02-17T17:05:37.667Z,13.75
2024-02-17T17:08:05.165Z,10.75
2024-02-17T17:10:32.400Z,10.27
2024-02-17T17:12:59.761Z,9.80
2024-02-17T17:15:26.996Z,13.50
2024-02-17T17:17:54.710Z,12.48
2024-02-17T17:20:24.438Z,14.07
2024-02-17T17:22:51.846Z,12.75
2024-02-17T17:25:19.080Z,16.85
2024-02-17T17:27:46.432Z,11.40
2024-02-17T17:30:14.170Z,12.27
2024-02-17T17:32:42.249Z,13.23
2024-02-17T17:35:10.379Z,12.57
2024-02-17T17:37:37.791Z,15.32
2024-02-17T17:40:09.795Z,13.60
2024-02-17T17:42:37.260Z,14.20
2024-02-17T17:45:04.596Z,13.48
2024-02-17T17:47:32.486Z,14.73
2024-02-17T17:49:59.990Z,13.95
2024-02-17T17:52:29.509Z,14.90
2024-02-17T17:54:59.191Z,16.05
2024-02-17T17:57:26.523Z,14.20
2024-02-17T17:59:53.793Z,13.93
2024-02-17T18:02:21.061Z,16.65
2024-02-17T18:04:48.478Z,16.77
2024-02-17T18:07:15.923Z,17.27
2024-02-17T18:09:44.142Z,18.98
2024-02-17T18:12:11.466Z,14.50
2024-02-17T18:14:38.727Z,17.17
2024-02-17T18:17:07.129Z,20.48
2024-02-17T18:19:34.506Z,19.17
2024-02-17T18:22:01.965Z,19.95
2024-02-17T18:24:29.175Z,16.73
2024-02-17T18:26:56.504Z,19.80
2024-02-17T18:29:23.760Z,19.58
2024-02-17T18:31:51.271Z,18.33
2024-02-17T18:34:18.642Z,22.65
2024-02-17T18:36:46.730Z,18.77
2024-02-17T18:39:14.190Z,18.35
2024-02-17T18:41:42.785Z,21.33
2024-02-17T18:44:10.913Z,20.75
2024-02-17T18:46:41.545Z,20.02
2024-02-17T18:49:09.216Z,21.52
2024-02-17T18:51:39.160Z,22.13
2024-02-17T18:54:07.577Z,19.52
2024-02-17T18:56:35.498Z,21.02
2024-02-17T18:59:02.781Z,20.30
2024-02-17T19:01:30.356Z,19.27
2024-02-17T19:03:57.815Z,23.15
2024-02-17T19:06:25.123Z,22.45
2024-02-17T19:08:53.000Z,22.27
2024-02-17T19:11:23.158Z,27.65
2024-02-17T19:13:50.560Z,22.60
2024-02-17T19:16:18.634Z,23.17
2024-02-17T19:18:46.693Z,24.35
2024-02-17T19:21:14.249Z,23.65
2024-02-17T19:23:41.876Z,24.55
2024-02-17T19:26:09.143Z,21.60
2024-02-17T19:28:37.489Z,21.23
2024-02-17T19:31:07.862Z,22.58
2024-02-17T19:33:38.432Z,21.00
2024-02-17T19:36:06.520Z,23.05
2024-02-17T19:38:34.010Z,25.83
2024-02-17T19:41:01.404Z,22.33
2024-02-17T19:43:28.848Z,24.15
2024-02-17T19:45:56.264Z,23.83
2024-02-17T19:48:23.769Z,27.13
2024-02-17T19:50:51.588Z,24.45
2024-02-17T19:53:18.842Z,28.88
2024-02-17T19:55:45.998Z,31.67
2024-02-17T19:58:13.264Z,25.58
2024-02-17T20:00:40.632Z,24.02
2024-02-17T20:03:08.169Z,25.83
2024-02-17T20:05:36.908Z,26.30
2024-02-17T20:08:04.463Z,28.63
2024-02-17T20:10:31.657Z,27.45
2024-02-17T20:12:59.992Z,28.10
2024-02-17T20:15:27.447Z,29.30
2024-02-17T20:17:54.803Z,28.00
2024-02-17T20:20:23.716Z,27.33
2024-02-17T20:22:51.083Z,27.33
2024-02-17T20:25:18.334Z,31.45
2024-02-17T20:27:45.780Z,25.55
2024-02-17T20:30:13.126Z,26.20
2024-02-17T20:32:40.602Z,27.35
2024-02-17T20:35:08.200Z,28.65
2024-02-17T20:37:35.567Z,26.35
2024-02-17T20:40:05.408Z,25.60
2024-02-17T20:42:32.993Z,28.90
2024-02-17T20:45:00.342Z,29.23
2024-02-17T20:47:27.707Z,29.15
2024-02-17T20:49:55.291Z,36.53
2024-02-17T20:52:22.693Z,37.00
2024-02-17T20:54:50.102Z,28.67
2024-02-17T20:57:17.622Z,34.97
2024-02-17T20:59:47.552Z,33.85
2024-02-17T21:02:15.172Z,32.83
2024-02-17T21:04:42.510Z,31.10
2024-02-17T21:07:09.971Z,28.52
2024-02-17T21:09:37.325Z,26.83
2024-02-17T21:12:04.705Z,31.10
2024-02-17T21:14:31.948Z,30.52
2024-02-17T21:16:59.204Z,27.23
2024-02-17T21:19:28.287Z,30.65
2024-02-17T21:21:55.745Z,27.27
2024-02-17T21:24:24.714Z,29.48
2024-02-17T21:26:51.966Z,29.17
2024-02-17T21:29:19.264Z,29.02
2024-02-17T21:31:46.440Z,28.63
2024-02-17T21:34:13.846Z,31.42
2024-02-17T21:36:41.700Z,29.88
2024-02-17T21:39:11.032Z,28.98
2024-02-17T21:41:38.898Z,26.85
2024-02-17T21:44:06.447Z,24.38
2024-02-17T21:46:34.297Z,30.25
2024-02-17T21:49:01.913Z,27.13
2024-02-17T21:51:29.380Z,28.23
2024-02-17T21:53:56.597Z,24.98
2024-02-17T21:56:23.760Z,25.17
2024-02-17T21:58:51.858Z,26.90
2024-02-17T22:01:19.200Z,31.60
2024-02-17T22:03:46.748Z,31.08
2024-02-17T22:06:14.227Z,25.52
2024-02-17T22:08:41.578Z,27.85
2024-02-17T22:11:09.048Z,27.73
2024-02-17T22:13:36.358Z,26.45
2024-02-17T22:16:04.233Z,27.52
2024-02-17T22:18:31.824Z,25.33
2024-02-17T22:20:59.176Z,26.55
2024-02-17T22:23:26.406Z,27.42
2024-02-17T22:25:54.319Z,25.88
2024-02-17T22:28:21.559Z,28.98
2024-02-17T22:30:48.797Z,25.55
2024-02-17T22:33:16.228Z,25.92
2024-02-17T22:35:43.621Z,25.52
2024-02-17T22:38:10.806Z,26.25
2024-02-17T22:40:38.099Z,25.40
2024-02-17T22:43:05.569Z,25.05
2024-02-17T22:45:32.820Z,25.15
2024-02-17T22:48:00.052Z,24.85
2024-02-17T22:50:27.383Z,22.95
2024-02-17T22:52:55.600Z,29.08
2024-02-17T22:55:22.825Z,33.50
2024-02-17T22:57:50.073Z,30.23
2024-02-17T23:00:23.637Z,28.90
2024-02-17T23:02:51.684Z,27.73
2024-02-17T23:05:20.059Z,28.40
2024-02-17T23:07:47.966Z,29.10
2024-02-17T23:10:15.704Z,27.50
2024-02-17T23:12:42.996Z,27.67
2024-02-17T23:15:11.002Z,26.45
2024-02-17T23:17:39.331Z,26.58
2024-02-17T23:20:07.496Z,26.73
2024-02-17T23:22:35.192Z,24.50
2024-02-17T23:25:02.595Z,23.25
2024-02-17T23:27:30.032Z,24.02
2024-02-17T23:29:58.257Z,23.58
2024-02-17T23:32:25.520Z,24.25
2024-02-17T23:34:52.947Z,25.02
2024-02-17T23:37:20.306Z,23.83
2024-02-17T23:39:48.306Z,23.92
2024-02-17T23:42:16.013Z,25.25
2024-02-17T23:44:43.352Z,22.83
2024-02-17T23:47:10.561Z,21.85
2024-02-17T23:49:37.893Z,24.17
2024-02-17T23:52:05.358Z,23.92
2024-02-17T23:54:36.491Z,22.10
2024-02-17T23:57:06.991Z,22.45
2024-02-17T23:59:34.605Z,21.48
